Fylde, United Kingdom
Current Conditions -  °F | °C
As of 2:20 PM on Thursday 30 Oct 2014 (Local Time) from EGNO Reporting Station
Broken Clouds Broken Clouds  
Wind Chill: 63°   Ceiling: 2700
Heat Index: 63°   Visibility: 6mi
Dew Point: 59°   Wind: 5mph
Humidity: 88%   Direction: 170°S
Pressure: 29.94"   Gusts: NA
Location:  53.83°N, 2.92°W
Report Text: EGNO 301420Z 17004KT 9999 BKN027 17/15 Q1014
Loading
Personal Weather Stations






























Interactive Weather Map
Tropical Storm Tracking
New forecast layout! Learn more

10-Day Weather Forecast

Advertisements
Track Severe Weather on mobile